Port Said Airport, Egypt

01:39 EET 1. Srpen 2014 (GMT +0200)
Port Said (HEPS) Výška 7 ft | 31.28 °N, 32.24 °E | Change Station

Current weather conditions updated 39 minutes ago

Clear
Jasno
79 °F
Pocit jako 79 °F
S
7
Vítr proměnlivý Vítr od SZ

Dnes má být podle předpovědi mnohem tepleji než včera.

Dnes
Vysoké -- | Nízké -- °F
--% Možnost srážek
Včera
Vysoké -- | Nízké -- °F
Precip. -- inčů
5:07 AM 6:46 PM
Dorůstající srpek, 21% visible
Tlak 29.74 inčů
Viditelnost -9999.0 mílí
Zataženo
Rosný bod 73 °F
Vlhkost 83%
Dešťové srážky 0.00 inčů
Sněhová pokrývka Není k dispozici
UV záření Není k dispozici
Pyl Není k dispozici
Kvalita ovzduší Není k dispozici
Flu Activity Není k dispozici
METAR HEPS 312300Z 31006KT CAVOK 26/23 Q1007 NOSIG

More Conditions Fewer Conditions

Tlak 29.74 inčů
Viditelnost -9999.0 mílí
Zataženo
Rosný bod 73 °F
Vlhkost 83%
Dešťové srážky 0.00 inčů
Sněhová pokrývka Není k dispozici
UV záření Není k dispozici
Pyl Není k dispozici
Kvalita ovzduší Není k dispozici
Flu Activity Není k dispozici
METAR HEPS 312300Z 31006KT CAVOK 26/23 Q1007 NOSIG

More Conditions Fewer Conditions

10-Day Weather Forecast

Almanac

Astronomie

Aug. 01, 2014 Východ Západ
Skutečný čas 05:07 EET 18:46 EET
Občanský soumrak 04:40 EET 19:12 EET
Námořní soumrak 04:09 EET 19:44 EET
Astronomický soumrak 03:35 EET 20:17 EET
Měsíc 09:49 EET (8/1) 21:44 EET (8/1)
Délka denního světla 14h 32m
Délka dne
13h 39m
Tomorrow will be 1m 25s shorter.
Dorůstající srpek, 21% of the Moon is Illuminated
Čec 31
Dorůstající srpek
Srp 3
První čtvrť
Srp 10
Úplněk
Srp 17
Ubývající
Srp 25
Nov

Včerejší extrémy

Nejvyšší hodnoty ve státě Nejnižší hodnoty ve státě

Community

WunderPhotos

Upload Photos

1,739,462 snímků staženo!

Nearby

Výška sněhu

Not available.

Seizmická činnost

Město Distance Mag. Čas & datum
Žádné zemětřesení v okolí nebylo hlášeno
Minimální zobrazený rozsah je 2.5.

Pobřežní teplota vody

Lokalita Teplota
Stanice nic nehlásí

Poblíž povětrnostní stanice

There are no personal weather stations in this area.